sensor_id;sensor_type;location;lat;lon;timestamp;pressure;altitude;pressure_sealevel;temperature;humidity
24620;BME280;12763;55.802;37.404;2022-12-13T00:01:51;98393.84;;;4.69;100.00
24620;BME280;12763;55.802;37.404;2022-12-13T00:04:23;98400.16;;;4.70;100.00
24620;BME280;12763;55.802;37.404;2022-12-13T00:07:15;98387.75;;;4.74;100.00
24620;BME280;12763;55.802;37.404;2022-12-13T00:09:42;98403.72;;;4.84;100.00
24620;BME280;12763;55.802;37.404;2022-12-13T00:12:12;98390.28;;;4.82;100.00
24620;BME280;12763;55.802;37.404;2022-12-13T00:14:42;98399.94;;;4.52;100.00
24620;BME280;12763;55.802;37.404;2022-12-13T00:17:12;98403.09;;;4.55;100.00
24620;BME280;12763;55.802;37.404;2022-12-13T00:19:43;98404.16;;;4.61;100.00
24620;BME280;12763;55.802;37.404;2022-12-13T00:22:10;98408.34;;;4.70;100.00
24620;BME280;12763;55.802;37.404;2022-12-13T00:24:40;98406.47;;;4.84;100.00
24620;BME280;12763;55.802;37.404;2022-12-13T00:27:09;98407.69;;;4.61;100.00
24620;BME280;12763;55.802;37.404;2022-12-13T00:29:39;98401.81;;;4.64;100.00
24620;BME280;12763;55.802;37.404;2022-12-13T00:32:15;98410.69;;;4.80;100.00
24620;BME280;12763;55.802;37.404;2022-12-13T00:34:45;98410.47;;;4.88;100.00
24620;BME280;12763;55.802;37.404;2022-12-13T00:37:12;98417.38;;;4.64;100.00
24620;BME280;12763;55.802;37.404;2022-12-13T00:39:42;98415.03;;;4.41;100.00
24620;BME280;12763;55.802;37.404;2022-12-13T00:42:15;98408.69;;;4.34;100.00
24620;BME280;12763;55.802;37.404;2022-12-13T00:44:42;98403.50;;;4.52;100.00
24620;BME280;12763;55.802;37.404;2022-12-13T00:47:24;98414.00;;;4.49;100.00
24620;BME280;12763;55.802;37.404;2022-12-13T00:49:54;98402.91;;;4.83;100.00
24620;BME280;12763;55.802;37.404;2022-12-13T00:52:22;98412.78;;;4.71;100.00
24620;BME280;12763;55.802;37.404;2022-12-13T00:54:52;98406.88;;;4.81;100.00
24620;BME280;12763;55.802;37.404;2022-12-13T00:57:29;98410.25;;;4.89;100.00
24620;BME280;12763;55.802;37.404;2022-12-13T01:00:05;98404.38;;;4.86;100.00
24620;BME280;12763;55.802;37.404;2022-12-13T01:02:33;98408.16;;;4.85;100.00
24620;BME280;12763;55.802;37.404;2022-12-13T01:05:02;98412.59;;;4.86;100.00
24620;BME280;12763;55.802;37.404;2022-12-13T01:07:29;98408.56;;;4.95;100.00
24620;BME280;12763;55.802;37.404;2022-12-13T01:10:17;98406.91;;;4.94;100.00
24620;BME280;12763;55.802;37.404;2022-12-13T01:12:44;98404.75;;;4.69;100.00
24620;BME280;12763;55.802;37.404;2022-12-13T01:15:21;98393.44;;;4.79;100.00
24620;BME280;12763;55.802;37.404;2022-12-13T01:17:57;98403.53;;;4.92;100.00
24620;BME280;12763;55.802;37.404;2022-12-13T01:20:29;98385.66;;;4.83;100.00
24620;BME280;12763;55.802;37.404;2022-12-13T01:22:55;98396.16;;;4.92;100.00
24620;BME280;12763;55.802;37.404;2022-12-13T01:25:29;98390.09;;;4.97;100.00
24620;BME280;12763;55.802;37.404;2022-12-13T01:28:04;98399.31;;;4.89;100.00
24620;BME280;12763;55.802;37.404;2022-12-13T01:30:30;98402.69;;;4.85;100.00
24620;BME280;12763;55.802;37.404;2022-12-13T01:33:05;98398.06;;;4.79;100.00
24620;BME280;12763;55.802;37.404;2022-12-13T01:35:43;98403.53;;;4.65;100.00
24620;BME280;12763;55.802;37.404;2022-12-13T01:38:11;98398.88;;;4.72;100.00
24620;BME280;12763;55.802;37.404;2022-12-13T01:40:49;98403.53;;;4.72;100.00
24620;BME280;12763;55.802;37.404;2022-12-13T01:46:13;98397.03;;;4.99;100.00
24620;BME280;12763;55.802;37.404;2022-12-13T01:48:48;98398.50;;;4.89;100.00
24620;BME280;12763;55.802;37.404;2022-12-13T01:51:31;98408.97;;;4.92;100.00
24620;BME280;12763;55.802;37.404;2022-12-13T01:54:01;98418.03;;;4.99;100.00
24620;BME280;12763;55.802;37.404;2022-12-13T01:56:45;98410.06;;;4.91;100.00
24620;BME280;12763;55.802;37.404;2022-12-13T01:59:14;98404.56;;;4.97;100.00
24620;BME280;12763;55.802;37.404;2022-12-13T02:01:49;98409.41;;;4.95;100.00
24620;BME280;12763;55.802;37.404;2022-12-13T02:04:30;98410.69;;;4.99;100.00
24620;BME280;12763;55.802;37.404;2022-12-13T02:07:03;98410.03;;;4.71;100.00
24620;BME280;12763;55.802;37.404;2022-12-13T02:09:39;98406.06;;;4.93;100.00
24620;BME280;12763;55.802;37.404;2022-12-13T02:12:15;98411.72;;;4.79;100.00
24620;BME280;12763;55.802;37.404;2022-12-13T02:14:48;98414.88;;;4.95;100.00
24620;BME280;12763;55.802;37.404;2022-12-13T02:31:17;98408.16;;;4.91;100.00
24620;BME280;12763;55.802;37.404;2022-12-13T02:33:57;98404.38;;;4.86;100.00
24620;BME280;12763;55.802;37.404;2022-12-13T02:36:30;98404.78;;;4.96;100.00
24620;BME280;12763;55.802;37.404;2022-12-13T02:41:50;98412.78;;;5.04;100.00
24620;BME280;12763;55.802;37.404;2022-12-13T02:44:23;98399.53;;;5.14;100.00
24620;BME280;12763;55.802;37.404;2022-12-13T02:47:13;98402.69;;;5.17;100.00
24620;BME280;12763;55.802;37.404;2022-12-13T02:50:09;98419.94;;;5.11;100.00
24620;BME280;12763;55.802;37.404;2022-12-13T02:52:48;98412.59;;;5.05;100.00
24620;BME280;12763;55.802;37.404;2022-12-13T02:55:21;98429.00;;;5.05;100.00
24620;BME280;12763;55.802;37.404;2022-12-13T02:58:18;98414.47;;;5.11;100.00
24620;BME280;12763;55.802;37.404;2022-12-13T03:07:25;98418.66;;;5.20;100.00
24620;BME280;12763;55.802;37.404;2022-12-13T03:10:35;98418.47;;;4.83;100.00
24620;BME280;12763;55.802;37.404;2022-12-13T03:12:58;98416.16;;;5.12;100.00
24620;BME280;12763;55.802;37.404;2022-12-13T03:18:56;98423.09;;;5.15;100.00
24620;BME280;12763;55.802;37.404;2022-12-13T03:21:53;98417.19;;;4.98;100.00
24620;BME280;12763;55.802;37.404;2022-12-13T03:24:21;98420.78;;;5.12;100.00
24620;BME280;12763;55.802;37.404;2022-12-13T03:26:51;98420.78;;;4.99;100.00
24620;BME280;12763;55.802;37.404;2022-12-13T03:29:24;98416.56;;;5.03;100.00
24620;BME280;12763;55.802;37.404;2022-12-13T03:31:52;98417.19;;;4.98;100.00
24620;BME280;12763;55.802;37.404;2022-12-13T03:34:19;98419.94;;;4.98;100.00
24620;BME280;12763;55.802;37.404;2022-12-13T03:37:03;98422.03;;;5.03;100.00
24620;BME280;12763;55.802;37.404;2022-12-13T03:39:33;98411.94;;;5.10;100.00
24620;BME280;12763;55.802;37.404;2022-12-13T03:42:03;98423.31;;;5.07;100.00
24620;BME280;12763;55.802;37.404;2022-12-13T03:44:33;98417.81;;;4.87;100.00
24620;BME280;12763;55.802;37.404;2022-12-13T03:47:06;98425.84;;;5.02;100.00
24620;BME280;12763;55.802;37.404;2022-12-13T03:49:44;98428.34;;;4.97;100.00
24620;BME280;12763;55.802;37.404;2022-12-13T03:52:14;98434.66;;;5.04;100.00
24620;BME280;12763;55.802;37.404;2022-12-13T03:54:59;98425.19;;;5.13;100.00
24620;BME280;12763;55.802;37.404;2022-12-13T03:57:40;98425.41;;;5.11;100.00
24620;BME280;12763;55.802;37.404;2022-12-13T04:00:11;98417.00;;;5.13;100.00
24620;BME280;12763;55.802;37.404;2022-12-13T04:02:41;98417.22;;;5.05;100.00
24620;BME280;12763;55.802;37.404;2022-12-13T04:05:08;98417.41;;;5.10;100.00
24620;BME280;12763;55.802;37.404;2022-12-13T04:07:38;98411.94;;;5.10;100.00
24620;BME280;12763;55.802;37.404;2022-12-13T04:10:21;98419.94;;;4.98;100.00
24620;BME280;12763;55.802;37.404;2022-12-13T04:12:52;98426.03;;;5.00;100.00
24620;BME280;12763;55.802;37.404;2022-12-13T04:15:46;98426.25;;;5.05;100.00
24620;BME280;12763;55.802;37.404;2022-12-13T04:18:15;98427.06;;;5.06;100.00
24620;BME280;12763;55.802;37.404;2022-12-13T04:20:45;98426.25;;;4.99;100.00
24620;BME280;12763;55.802;37.404;2022-12-13T04:23:15;98425.59;;;5.03;100.00
24620;BME280;12763;55.802;37.404;2022-12-13T04:25:43;98424.78;;;4.96;100.00
24620;BME280;12763;55.802;37.404;2022-12-13T04:28:10;98426.69;;;5.02;100.00
24620;BME280;12763;55.802;37.404;2022-12-13T04:30:45;98430.66;;;5.13;100.00
24620;BME280;12763;55.802;37.404;2022-12-13T04:33:12;98434.66;;;5.17;100.00
24620;BME280;12763;55.802;37.404;2022-12-13T04:35:58;98432.13;;;4.96;100.00
24620;BME280;12763;55.802;37.404;2022-12-13T04:38:33;98430.44;;;5.01;100.00
24620;BME280;12763;55.802;37.404;2022-12-13T04:41:07;98439.91;;;5.12;100.00
24620;BME280;12763;55.802;37.404;2022-12-13T04:43:46;98440.97;;;5.04;100.00
24620;BME280;12763;55.802;37.404;2022-12-13T04:46:21;98433.19;;;5.21;100.00
24620;BME280;12763;55.802;37.404;2022-12-13T04:48:53;98438.44;;;5.22;100.00
24620;BME280;12763;55.802;37.404;2022-12-13T04:51:21;98428.75;;;5.20;100.00
24620;BME280;12763;55.802;37.404;2022-12-13T04:53:47;98436.34;;;5.05;100.00
24620;BME280;12763;55.802;37.404;2022-12-13T04:56:23;98428.13;;;5.18;100.00
24620;BME280;12763;55.802;37.404;2022-12-13T04:58:50;98435.28;;;4.93;100.00
24620;BME280;12763;55.802;37.404;2022-12-13T05:01:16;98441.81;;;5.05;100.00
24620;BME280;12763;55.802;37.404;2022-12-13T05:03:47;98446.00;;;5.14;100.00
24620;BME280;12763;55.802;37.404;2022-12-13T05:06:25;98457.78;;;5.01;100.00
24620;BME280;12763;55.802;37.404;2022-12-13T05:08:55;98450.63;;;5.00;100.00
24620;BME280;12763;55.802;37.404;2022-12-13T05:11:27;98449.78;;;5.19;100.00
24620;BME280;12763;55.802;37.404;2022-12-13T05:14:02;98455.28;;;5.26;100.00
24620;BME280;12763;55.802;37.404;2022-12-13T05:16:30;98447.69;;;5.15;100.00
24620;BME280;12763;55.802;37.404;2022-12-13T05:19:08;98446.00;;;5.14;100.00
24620;BME280;12763;55.802;37.404;2022-12-13T05:21:43;98446.88;;;5.08;100.00
24620;BME280;12763;55.802;37.404;2022-12-13T05:24:24;98443.50;;;5.19;100.00
24620;BME280;12763;55.802;37.404;2022-12-13T05:26:54;98451.06;;;5.10;100.00
24620;BME280;12763;55.802;37.404;2022-12-13T05:29:24;98454.00;;;5.22;100.00
24620;BME280;12763;55.802;37.404;2022-12-13T05:32:01;98446.66;;;4.96;100.00
24620;BME280;12763;55.802;37.404;2022-12-13T05:34:29;98456.94;;;5.01;100.00
24620;BME280;12763;55.802;37.404;2022-12-13T05:36:58;98462.00;;;5.23;100.00
24620;BME280;12763;55.802;37.404;2022-12-13T05:39:31;98463.47;;;4.93;100.00
24620;BME280;12763;55.802;37.404;2022-12-13T05:42:02;98456.34;;;5.05;100.00
24620;BME280;12763;55.802;37.404;2022-12-13T05:44:32;98459.69;;;5.07;100.00
24620;BME280;12763;55.802;37.404;2022-12-13T05:47:07;98451.91;;;5.17;100.00
24620;BME280;12763;55.802;37.404;2022-12-13T05:49:34;98456.09;;;5.20;100.00
24620;BME280;12763;55.802;37.404;2022-12-13T05:52:01;98467.06;;;5.26;100.00
24620;BME280;12763;55.802;37.404;2022-12-13T05:54:37;98456.31;;;5.12;100.00
24620;BME280;12763;55.802;37.404;2022-12-13T05:57:07;98457.56;;;5.22;100.00
24620;BME280;12763;55.802;37.404;2022-12-13T05:59:40;98459.50;;;5.35;100.00
24620;BME280;12763;55.802;37.404;2022-12-13T06:02:18;98459.47;;;5.22;100.00
24620;BME280;12763;55.802;37.404;2022-12-13T06:04:46;98456.09;;;5.20;100.00
24620;BME280;12763;55.802;37.404;2022-12-13T06:07:18;98452.94;;;5.36;100.00
24620;BME280;12763;55.802;37.404;2022-12-13T06:09:59;98466.66;;;5.16;100.00
24620;BME280;12763;55.802;37.404;2022-12-13T06:12:58;98461.59;;;5.13;100.00
24620;BME280;12763;55.802;37.404;2022-12-13T06:15:25;98465.81;;;5.16;100.00
24620;BME280;12763;55.802;37.404;2022-12-13T06:18:01;98459.50;;;5.35;100.00
24620;BME280;12763;55.802;37.404;2022-12-13T06:20:54;98460.94;;;5.51;100.00
24620;BME280;12763;55.802;37.404;2022-12-13T06:23:21;98462.00;;;5.43;100.00
24620;BME280;12763;55.802;37.404;2022-12-13T06:26:05;98467.03;;;5.33;100.00
24620;BME280;12763;55.802;37.404;2022-12-13T06:28:39;98461.16;;;5.23;100.00
24620;BME280;12763;55.802;37.404;2022-12-13T06:31:18;98467.69;;;5.35;100.00
24620;BME280;12763;55.802;37.404;2022-12-13T06:33:47;98466.00;;;5.34;100.00
24620;BME280;12763;55.802;37.404;2022-12-13T06:36:18;98472.09;;;5.49;100.00
24620;BME280;12763;55.802;37.404;2022-12-13T06:38:45;98466.22;;;5.13;100.00
24620;BME280;12763;55.802;37.404;2022-12-13T06:41:15;98478.84;;;5.27;100.00
24620;BME280;12763;55.802;37.404;2022-12-13T06:43:51;98480.31;;;5.49;100.00
24620;BME280;12763;55.802;37.404;2022-12-13T06:46:32;98485.56;;;5.57;100.00
24620;BME280;12763;55.802;37.404;2022-12-13T06:49:18;98494.81;;;5.50;100.00
24620;BME280;12763;55.802;37.404;2022-12-13T06:52:08;98495.03;;;5.09;100.00
24620;BME280;12763;55.802;37.404;2022-12-13T06:54:38;98509.34;;;5.11;100.00
24620;BME280;12763;55.802;37.404;2022-12-13T06:57:07;98509.97;;;5.26;100.00
24620;BME280;12763;55.802;37.404;2022-12-13T06:59:34;98518.38;;;5.18;100.00
24620;BME280;12763;55.802;37.404;2022-12-13T07:02:04;98520.28;;;5.11;100.00
24620;BME280;12763;55.802;37.404;2022-12-13T07:04:32;98520.91;;;5.39;100.00
24620;BME280;12763;55.802;37.404;2022-12-13T07:06:58;98525.13;;;5.35;100.00
24620;BME280;12763;55.802;37.404;2022-12-13T07:09:31;98524.28;;;5.21;100.00
24620;BME280;12763;55.802;37.404;2022-12-13T07:12:04;98520.47;;;5.22;100.00
24620;BME280;12763;55.802;37.404;2022-12-13T07:14:30;98524.25;;;5.02;100.00
24620;BME280;12763;55.802;37.404;2022-12-13T07:16:58;98534.78;;;5.05;100.00
24620;BME280;12763;55.802;37.404;2022-12-13T07:19:28;98531.22;;;5.11;100.00
24620;BME280;12763;55.802;37.404;2022-12-13T07:21:54;98537.75;;;5.16;100.00
24620;BME280;12763;55.802;37.404;2022-12-13T07:24:24;98535.22;;;5.15;100.00
24620;BME280;12763;55.802;37.404;2022-12-13T07:26:50;98546.16;;;5.21;100.00
24620;BME280;12763;55.802;37.404;2022-12-13T07:29:20;98554.56;;;5.33;100.00
24620;BME280;12763;55.802;37.404;2022-12-13T07:31:58;98561.72;;;5.27;100.00
24620;BME280;12763;55.802;37.404;2022-12-13T07:34:25;98553.75;;;5.39;100.00
24620;BME280;12763;55.802;37.404;2022-12-13T07:36:51;98560.66;;;5.22;100.00
24620;BME280;12763;55.802;37.404;2022-12-13T07:39:26;98550.78;;;5.34;100.00
24620;BME280;12763;55.802;37.404;2022-12-13T07:41:54;98552.84;;;5.06;100.00
24620;BME280;12763;55.802;37.404;2022-12-13T07:44:21;98560.03;;;5.20;100.00
24620;BME280;12763;55.802;37.404;2022-12-13T07:46:51;98565.69;;;4.99;100.00
24620;BME280;12763;55.802;37.404;2022-12-13T07:49:17;98558.56;;;5.17;100.00
24620;BME280;12763;55.802;37.404;2022-12-13T07:51:47;98561.72;;;5.08;100.00
24620;BME280;12763;55.802;37.404;2022-12-13T07:54:19;98559.38;;;4.98;100.00
24620;BME280;12763;55.802;37.404;2022-12-13T07:56:46;98551.59;;;5.02;100.00
24620;BME280;12763;55.802;37.404;2022-12-13T07:59:12;98570.28;;;4.85;100.00
24620;BME280;12763;55.802;37.404;2022-12-13T08:01:39;98568.38;;;4.86;100.00
24620;BME280;12763;55.802;37.404;2022-12-13T08:04:08;98574.28;;;4.96;100.00
24620;BME280;12763;55.802;37.404;2022-12-13T08:06:36;98575.19;;;5.16;100.00
24620;BME280;12763;55.802;37.404;2022-12-13T08:09:03;98571.81;;;5.20;100.00
24620;BME280;12763;55.802;37.404;2022-12-13T08:11:30;98569.25;;;5.06;100.00
24620;BME280;12763;55.802;37.404;2022-12-13T08:13:57;98575.59;;;5.00;100.00
24620;BME280;12763;55.802;37.404;2022-12-13T08:16:47;98578.56;;;5.24;100.00
24620;BME280;12763;55.802;37.404;2022-12-13T08:19:16;98597.50;;;5.39;100.00
24620;BME280;12763;55.802;37.404;2022-12-13T08:21:43;98586.72;;;5.11;100.00
24620;BME280;12763;55.802;37.404;2022-12-13T08:24:13;98595.72;;;4.86;100.00
24620;BME280;12763;55.802;37.404;2022-12-13T08:26:45;98578.91;;;4.89;100.00
24620;BME280;12763;55.802;37.404;2022-12-13T08:29:11;98598.16;;;4.61;100.00
24620;BME280;12763;55.802;37.404;2022-12-13T08:31:38;98601.06;;;4.59;100.00
24620;BME280;12763;55.802;37.404;2022-12-13T08:34:12;98602.75;;;4.60;100.00
24620;BME280;12763;55.802;37.404;2022-12-13T08:36:44;98623.19;;;4.30;100.00
24620;BME280;12763;55.802;37.404;2022-12-13T08:39:14;98615.84;;;4.31;100.00
24620;BME280;12763;55.802;37.404;2022-12-13T08:41:40;98623.66;;;4.40;100.00
24620;BME280;12763;55.802;37.404;2022-12-13T08:44:06;98615.97;;;4.23;100.00
24620;BME280;12763;55.802;37.404;2022-12-13T08:46:33;98632.78;;;4.20;100.00
24620;BME280;12763;55.802;37.404;2022-12-13T08:49:00;98626.63;;;4.45;100.00
24620;BME280;12763;55.802;37.404;2022-12-13T08:51:29;98621.81;;;4.47;100.00
24620;BME280;12763;55.802;37.404;2022-12-13T08:53:55;98613.75;;;4.73;100.00
24620;BME280;12763;55.802;37.404;2022-12-13T08:56:24;98622.22;;;4.92;100.00
24620;BME280;12763;55.802;37.404;2022-12-13T08:58:51;98631.75;;;4.61;100.00
24620;BME280;12763;55.802;37.404;2022-12-13T09:01:20;98629.34;;;4.80;100.00
24620;BME280;12763;55.802;37.404;2022-12-13T09:03:48;98640.31;;;4.93;100.00
24620;BME280;12763;55.802;37.404;2022-12-13T09:06:15;98646.63;;;4.93;100.00
24620;BME280;12763;55.802;37.404;2022-12-13T09:08:43;98653.75;;;4.88;100.00
24620;BME280;12763;55.802;37.404;2022-12-13T09:11:13;98652.13;;;4.59;100.00
24620;BME280;12763;55.802;37.404;2022-12-13T09:13:40;98655.94;;;4.64;100.00
24620;BME280;12763;55.802;37.404;2022-12-13T09:16:14;98660.06;;;4.47;100.00
24620;BME280;12763;55.802;37.404;2022-12-13T09:18:49;98651.13;;;4.66;100.00
24620;BME280;12763;55.802;37.404;2022-12-13T09:21:17;98656.13;;;4.56;100.00
24620;BME280;12763;55.802;37.404;2022-12-13T09:23:46;98650.63;;;4.50;100.00
24620;BME280;12763;55.802;37.404;2022-12-13T09:26:14;98658.22;;;4.54;100.00
24620;BME280;12763;55.802;37.404;2022-12-13T09:28:41;98657.38;;;4.54;100.00
24620;BME280;12763;55.802;37.404;2022-12-13T09:31:13;98661.09;;;4.46;100.00
24620;BME280;12763;55.802;37.404;2022-12-13T09:33:39;98651.72;;;4.62;100.00
24620;BME280;12763;55.802;37.404;2022-12-13T09:36:15;98661.72;;;4.83;100.00
24620;BME280;12763;55.802;37.404;2022-12-13T09:38:47;98659.97;;;4.68;100.00
24620;BME280;12763;55.802;37.404;2022-12-13T09:41:15;98669.94;;;4.48;100.00
24620;BME280;12763;55.802;37.404;2022-12-13T09:43:47;98677.06;;;4.77;100.00
24620;BME280;12763;55.802;37.404;2022-12-13T09:46:42;98671.25;;;4.59;100.00
24620;BME280;12763;55.802;37.404;2022-12-13T09:49:36;98665.44;;;4.75;100.00
24620;BME280;12763;55.802;37.404;2022-12-13T09:52:06;98677.22;;;4.75;100.00
24620;BME280;12763;55.802;37.404;2022-12-13T09:54:33;98679.59;;;4.44;100.00
24620;BME280;12763;55.802;37.404;2022-12-13T09:57:08;98683.44;;;4.56;100.00
24620;BME280;12763;55.802;37.404;2022-12-13T09:59:40;98674.03;;;4.31;100.00
24620;BME280;12763;55.802;37.404;2022-12-13T10:02:22;98680.16;;;4.33;100.00
24620;BME280;12763;55.802;37.404;2022-12-13T10:04:48;98684.94;;;4.31;100.00
24620;BME280;12763;55.802;37.404;2022-12-13T10:07:22;98688.97;;;4.35;100.00
24620;BME280;12763;55.802;37.404;2022-12-13T10:09:58;98692.50;;;4.29;99.20
24620;BME280;12763;55.802;37.404;2022-12-13T10:12:27;98696.78;;;4.38;99.41
24620;BME280;12763;55.802;37.404;2022-12-13T10:14:57;98690.06;;;4.41;99.31
24620;BME280;12763;55.802;37.404;2022-12-13T10:17:27;98685.72;;;4.19;97.94
24620;BME280;12763;55.802;37.404;2022-12-13T10:19:57;98692.41;;;4.16;99.02
24620;BME280;12763;55.802;37.404;2022-12-13T10:22:25;98689.97;;;4.00;100.00
24620;BME280;12763;55.802;37.404;2022-12-13T10:25:02;98694.72;;;3.91;100.00
24620;BME280;12763;55.802;37.404;2022-12-13T10:27:43;98698.94;;;3.94;100.00
24620;BME280;12763;55.802;37.404;2022-12-13T10:30:20;98696.47;;;3.99;100.00
24620;BME280;12763;55.802;37.404;2022-12-13T10:32:55;98700.75;;;4.08;100.00
24620;BME280;12763;55.802;37.404;2022-12-13T10:35:27;98703.69;;;3.85;100.00
24620;BME280;12763;55.802;37.404;2022-12-13T10:37:56;98709.88;;;3.94;100.00
24620;BME280;12763;55.802;37.404;2022-12-13T10:40:37;98711.66;;;4.08;100.00
24620;BME280;12763;55.802;37.404;2022-12-13T10:43:07;98724.94;;;4.11;100.00
24620;BME280;12763;55.802;37.404;2022-12-13T10:45:34;98725.19;;;3.74;100.00
24620;BME280;12763;55.802;37.404;2022-12-13T10:48:01;98722.84;;;4.13;100.00
24620;BME280;12763;55.802;37.404;2022-12-13T10:50:28;98731.84;;;3.86;100.00
24620;BME280;12763;55.802;37.404;2022-12-13T10:52:57;98729.75;;;3.88;99.34
24620;BME280;12763;55.802;37.404;2022-12-13T10:55:33;98730.66;;;3.74;98.29
24620;BME280;12763;55.802;37.404;2022-12-13T10:58:02;98724.94;;;3.90;98.62
24620;BME280;12763;55.802;37.404;2022-12-13T11:00:41;98728.47;;;4.11;97.06
24620;BME280;12763;55.802;37.404;2022-12-13T11:03:26;98724.78;;;3.98;96.34
24620;BME280;12763;55.802;37.404;2022-12-13T11:06:20;98731.44;;;3.89;96.11
24620;BME280;12763;55.802;37.404;2022-12-13T11:08:47;98737.66;;;4.04;95.79
24620;BME280;12763;55.802;37.404;2022-12-13T11:11:16;98738.97;;;3.87;96.19
24620;BME280;12763;55.802;37.404;2022-12-13T11:16:30;98750.31;;;3.84;96.09
24620;BME280;12763;55.802;37.404;2022-12-13T11:19:19;98744.75;;;3.77;95.59
24620;BME280;12763;55.802;37.404;2022-12-13T11:21:54;98739.56;;;3.82;95.70
24620;BME280;12763;55.802;37.404;2022-12-13T11:24:24;98756.38;;;3.65;95.61
24620;BME280;12763;55.802;37.404;2022-12-13T11:30:03;98767.06;;;3.81;95.37
24620;BME280;12763;55.802;37.404;2022-12-13T11:33:35;98767.44;;;3.99;95.47
24620;BME280;12763;55.802;37.404;2022-12-13T11:46:59;98782.47;;;3.52;95.94
24620;BME280;12763;55.802;37.404;2022-12-13T11:49:38;98803.97;;;3.26;94.99
24620;BME280;12763;55.802;37.404;2022-12-13T11:52:28;98790.69;;;3.38;95.00
24620;BME280;12763;55.802;37.404;2022-12-13T11:54:58;98792.41;;;3.24;94.85
24620;BME280;12763;55.802;37.404;2022-12-13T12:00:28;98810.66;;;3.60;93.59
24620;BME280;12763;55.802;37.404;2022-12-13T12:03:21;98800.22;;;3.13;94.58
24620;BME280;12763;55.802;37.404;2022-12-13T12:06:01;98810.47;;;3.25;93.86
24620;BME280;12763;55.802;37.404;2022-12-13T12:17:05;98821.28;;;3.33;92.40
24620;BME280;12763;55.802;37.404;2022-12-13T12:19:35;98831.75;;;3.51;91.39
24620;BME280;12763;55.802;37.404;2022-12-13T12:30:19;98808.22;;;3.65;89.46
24620;BME280;12763;55.802;37.404;2022-12-13T12:41:22;98799.53;;;3.76;88.27
24620;BME280;12763;55.802;37.404;2022-12-13T12:52:57;98811.38;;;3.47;88.79
24620;BME280;12763;55.802;37.404;2022-12-13T12:55:29;98808.75;;;3.39;88.58
24620;BME280;12763;55.802;37.404;2022-12-13T13:03:41;98811.50;;;3.24;88.86
24620;BME280;12763;55.802;37.404;2022-12-13T13:06:56;98808.50;;;3.34;88.96
24620;BME280;12763;55.802;37.404;2022-12-13T13:09:10;98807.25;;;3.36;88.74
24620;BME280;12763;55.802;37.404;2022-12-13T13:11:39;98801.19;;;3.55;88.69
24620;BME280;12763;55.802;37.404;2022-12-13T13:16:55;98792.44;;;3.60;87.75
24620;BME280;12763;55.802;37.404;2022-12-13T13:21:58;98797.72;;;3.62;87.75
24620;BME280;12763;55.802;37.404;2022-12-13T13:24:26;98799.94;;;3.73;87.43
24620;BME280;12763;55.802;37.404;2022-12-13T13:27:27;98792.81;;;3.57;87.00
24620;BME280;12763;55.802;37.404;2022-12-13T13:30:19;98801.09;;;3.64;87.48
24620;BME280;12763;55.802;37.404;2022-12-13T13:32:48;98804.69;;;3.49;86.64
24620;BME280;12763;55.802;37.404;2022-12-13T13:37:54;98794.53;;;3.43;85.44
24620;BME280;12763;55.802;37.404;2022-12-13T13:40:37;98805.00;;;3.25;85.60
24620;BME280;12763;55.802;37.404;2022-12-13T13:48:42;98808.13;;;3.37;84.12
24620;BME280;12763;55.802;37.404;2022-12-13T13:54:51;98825.78;;;3.26;83.74
24620;BME280;12763;55.802;37.404;2022-12-13T13:57:43;98830.84;;;3.29;84.07
24620;BME280;12763;55.802;37.404;2022-12-13T14:05:55;98835.28;;;3.30;82.50
24620;BME280;12763;55.802;37.404;2022-12-13T14:20:21;98833.22;;;2.88;82.69
24620;BME280;12763;55.802;37.404;2022-12-13T14:26:08;98826.91;;;2.88;83.54
24620;BME280;12763;55.802;37.404;2022-12-13T14:29:03;98816.75;;;2.82;83.99
24620;BME280;12763;55.802;37.404;2022-12-13T14:31:42;98815.06;;;3.10;83.11
24620;BME280;12763;55.802;37.404;2022-12-13T14:34:22;98810.75;;;3.01;82.70
24620;BME280;12763;55.802;37.404;2022-12-13T14:36:55;98815.94;;;3.11;83.10
24620;BME280;12763;55.802;37.404;2022-12-13T14:39:30;98811.16;;;2.98;83.24
24620;BME280;12763;55.802;37.404;2022-12-13T14:42:01;98813.88;;;2.98;83.32
24620;BME280;12763;55.802;37.404;2022-12-13T14:44:34;98828.16;;;3.00;82.89
24620;BME280;12763;55.802;37.404;2022-12-13T14:47:07;98825.50;;;2.77;83.16
24620;BME280;12763;55.802;37.404;2022-12-13T14:49:38;98800.06;;;2.70;84.29
24620;BME280;12763;55.802;37.404;2022-12-13T14:52:08;98797.03;;;2.94;83.18
24620;BME280;12763;55.802;37.404;2022-12-13T14:54:53;98803.91;;;3.05;82.36
24620;BME280;12763;55.802;37.404;2022-12-13T14:57:25;98794.78;;;2.98;82.82
24620;BME280;12763;55.802;37.404;2022-12-13T14:59:54;98801.00;;;2.92;82.53
24620;BME280;12763;55.802;37.404;2022-12-13T15:02:26;98801.53;;;3.02;83.06
24620;BME280;12763;55.802;37.404;2022-12-13T15:04:55;98808.00;;;3.01;82.26
24620;BME280;12763;55.802;37.404;2022-12-13T15:07:36;98810.84;;;2.93;82.03
24620;BME280;12763;55.802;37.404;2022-12-13T15:10:21;98804.63;;;2.99;82.69
24620;BME280;12763;55.802;37.404;2022-12-13T15:12:51;98804.75;;;2.91;83.21
24620;BME280;12763;55.802;37.404;2022-12-13T15:15:31;98813.69;;;3.14;82.92
24620;BME280;12763;55.802;37.404;2022-12-13T15:18:18;98811.88;;;3.21;82.46
24620;BME280;12763;55.802;37.404;2022-12-13T15:20:53;98832.28;;;3.25;81.95
24620;BME280;12763;55.802;37.404;2022-12-13T15:23:35;98806.19;;;3.37;81.86
24620;BME280;12763;55.802;37.404;2022-12-13T15:26:14;98811.59;;;3.16;82.27
24620;BME280;12763;55.802;37.404;2022-12-13T15:28:45;98811.06;;;3.06;82.74
24620;BME280;12763;55.802;37.404;2022-12-13T15:31:13;98821.00;;;3.14;82.45
24620;BME280;12763;55.802;37.404;2022-12-13T15:33:40;98825.78;;;2.97;82.72